createdAt,value
2023-01-07T00:01:38.764Z,61.60
2023-01-07T00:04:07.598Z,60.30
2023-01-07T00:06:40.448Z,60.30
2023-01-07T00:09:11.396Z,60.20
2023-01-07T00:11:39.856Z,60.40
2023-01-07T00:14:09.572Z,60.70
2023-01-07T00:16:37.220Z,61.60
2023-01-07T00:19:05.703Z,60.30
2023-01-07T00:21:33.155Z,62.40
2023-01-07T00:24:02.224Z,61.80
2023-01-07T00:26:34.334Z,61.10
2023-01-07T00:29:01.353Z,60.90
2023-01-07T00:31:31.945Z,60.40
2023-01-07T00:33:59.406Z,60.20
2023-01-07T00:36:32.365Z,61.20
2023-01-07T00:39:05.911Z,60.20
2023-01-07T00:41:33.746Z,60.20
2023-01-07T00:44:00.758Z,61.40
2023-01-07T00:46:27.685Z,61.80
2023-01-07T00:48:54.504Z,60.30
2023-01-07T00:51:22.459Z,60.80
2023-01-07T00:53:50.274Z,61.10
2023-01-07T00:56:19.002Z,60.10
2023-01-07T00:58:46.648Z,60.30
2023-01-07T01:01:13.845Z,61.20
2023-01-07T01:03:40.837Z,60.40
2023-01-07T01:06:15.564Z,60.20
2023-01-07T01:08:45.009Z,60.00
2023-01-07T01:11:13.966Z,60.10
2023-01-07T01:13:41.505Z,60.80
2023-01-07T01:16:17.661Z,61.20
2023-01-07T01:18:45.623Z,60.10
2023-01-07T01:21:14.177Z,60.50
2023-01-07T01:23:42.772Z,60.60
2023-01-07T01:26:13.480Z,60.60
2023-01-07T01:28:40.435Z,60.10
2023-01-07T01:31:09.161Z,61.00
2023-01-07T01:33:46.463Z,60.50
2023-01-07T01:36:13.463Z,60.60
2023-01-07T01:38:41.719Z,60.40
2023-01-07T01:41:10.052Z,61.70
2023-01-07T01:43:42.024Z,60.90
2023-01-07T01:46:24.306Z,60.10
2023-01-07T01:48:56.592Z,60.00
2023-01-07T01:51:27.452Z,62.30
2023-01-07T01:53:56.039Z,61.00
2023-01-07T01:56:31.772Z,60.20
2023-01-07T01:59:05.282Z,60.10
2023-01-07T02:01:35.340Z,61.40
2023-01-07T02:04:11.825Z,60.90
2023-01-07T02:06:44.644Z,61.60
2023-01-07T02:09:13.058Z,61.00
2023-01-07T02:11:52.200Z,60.10
2023-01-07T02:14:37.685Z,60.10
2023-01-07T02:17:13.470Z,61.30
2023-01-07T02:20:07.319Z,60.00
2023-01-07T02:22:36.889Z,60.30
2023-01-07T02:25:34.481Z,60.90
2023-01-07T02:28:11.469Z,60.00
2023-01-07T02:31:12.193Z,60.00
2023-01-07T02:33:59.512Z,60.00
2023-01-07T02:36:59.642Z,60.00
2023-01-07T02:39:45.430Z,60.00
2023-01-07T02:42:26.751Z,60.00
2023-01-07T02:45:15.277Z,60.10
2023-01-07T02:47:50.343Z,60.10
2023-01-07T02:50:17.184Z,60.10
2023-01-07T02:52:45.220Z,61.80
2023-01-07T02:55:17.415Z,60.10
2023-01-07T02:58:05.788Z,60.10
2023-01-07T03:00:57.870Z,60.10
2023-01-07T03:03:58.044Z,60.10
2023-01-07T03:06:58.212Z,60.10
2023-01-07T03:10:00.786Z,60.10
2023-01-07T03:12:44.428Z,60.10
2023-01-07T03:15:19.796Z,60.00
2023-01-07T03:18:10.698Z,60.00
2023-01-07T03:20:39.202Z,60.00
2023-01-07T03:23:09.933Z,60.00
2023-01-07T03:25:42.570Z,61.40
2023-01-07T03:28:12.104Z,60.00
2023-01-07T03:30:38.997Z,60.30
2023-01-07T03:33:37.813Z,60.20
2023-01-07T03:36:09.095Z,59.90
2023-01-07T03:38:38.087Z,59.90
2023-01-07T03:41:05.082Z,60.10
2023-01-07T03:43:32.186Z,60.00
2023-01-07T03:45:59.559Z,60.40
2023-01-07T03:48:27.878Z,60.00
2023-01-07T03:50:55.535Z,59.90
2023-01-07T03:53:22.227Z,59.90
2023-01-07T03:55:51.086Z,61.00
2023-01-07T03:58:17.964Z,60.50
2023-01-07T04:00:45.429Z,60.20
2023-01-07T04:03:17.048Z,61.10
2023-01-07T04:05:46.398Z,61.50
2023-01-07T04:08:13.763Z,61.50
2023-01-07T04:10:41.584Z,61.30
2023-01-07T04:13:09.842Z,60.10
2023-01-07T04:15:37.313Z,60.10
2023-01-07T04:18:04.658Z,61.10
2023-01-07T04:20:31.486Z,60.00
2023-01-07T04:22:59.962Z,60.60
2023-01-07T04:25:26.862Z,59.20
2023-01-07T04:27:54.329Z,60.80
2023-01-07T04:30:22.105Z,60.70
2023-01-07T04:32:48.847Z,60.50
2023-01-07T04:35:15.697Z,61.00
2023-01-07T04:37:43.161Z,59.80
2023-01-07T04:40:10.824Z,60.40
2023-01-07T04:42:38.918Z,59.70
2023-01-07T04:45:08.578Z,60.60
2023-01-07T04:47:35.557Z,59.70
2023-01-07T04:50:03.307Z,59.80
2023-01-07T04:52:32.541Z,59.70
2023-01-07T04:54:59.514Z,59.00
2023-01-07T04:57:27.310Z,58.90
2023-01-07T04:59:54.256Z,60.70
2023-01-07T05:02:21.293Z,59.70
2023-01-07T05:04:48.337Z,60.00
2023-01-07T05:07:17.372Z,60.30
2023-01-07T05:09:44.776Z,59.60
2023-01-07T05:12:12.182Z,60.10
2023-01-07T05:14:38.937Z,60.30
2023-01-07T05:17:05.609Z,60.30
2023-01-07T05:19:32.651Z,59.70
2023-01-07T05:22:00.896Z,60.20
2023-01-07T05:24:28.189Z,61.10
2023-01-07T05:26:55.133Z,60.10
2023-01-07T05:29:22.667Z,59.70
2023-01-07T05:31:49.436Z,60.30
2023-01-07T05:34:16.733Z,60.70
2023-01-07T05:36:45.023Z,59.60
2023-01-07T05:39:12.173Z,59.70
2023-01-07T05:41:38.958Z,59.70
2023-01-07T05:44:06.837Z,60.80
2023-01-07T05:46:33.542Z,59.50
2023-01-07T05:49:00.306Z,59.40
2023-01-07T05:51:27.088Z,59.40
2023-01-07T05:53:53.930Z,59.50
2023-01-07T05:56:20.828Z,59.40
2023-01-07T05:58:47.555Z,60.90
2023-01-07T06:01:14.420Z,59.40
2023-01-07T06:03:41.317Z,60.60
2023-01-07T06:06:08.171Z,59.90
2023-01-07T06:08:38.790Z,59.70
2023-01-07T06:11:07.380Z,59.40
2023-01-07T06:13:34.897Z,59.60
2023-01-07T06:16:09.576Z,59.40
2023-01-07T06:18:36.610Z,60.30
2023-01-07T06:21:04.198Z,59.90
2023-01-07T06:23:31.399Z,59.10
2023-01-07T06:25:58.351Z,59.90
2023-01-07T06:28:26.112Z,59.10
2023-01-07T06:30:52.895Z,59.60
2023-01-07T06:33:19.925Z,59.00
2023-01-07T06:35:46.865Z,59.10
2023-01-07T06:38:13.755Z,59.10
2023-01-07T06:40:40.493Z,59.70
2023-01-07T06:43:07.323Z,59.30
2023-01-07T06:45:34.144Z,59.40
2023-01-07T06:48:00.896Z,59.80
2023-01-07T06:50:27.628Z,60.50
2023-01-07T06:52:54.458Z,58.90
2023-01-07T06:55:21.220Z,59.20
2023-01-07T06:57:48.047Z,59.60
2023-01-07T07:00:15.191Z,58.70
2023-01-07T07:02:42.082Z,58.70
2023-01-07T07:05:11.123Z,58.80
2023-01-07T07:07:38.001Z,59.10
2023-01-07T07:10:07.341Z,58.60
2023-01-07T07:12:35.540Z,58.60
2023-01-07T07:15:07.623Z,58.50
2023-01-07T07:17:34.616Z,58.40
2023-01-07T07:20:02.636Z,59.90
2023-01-07T07:22:30.003Z,59.20
2023-01-07T07:24:56.765Z,58.80
2023-01-07T07:27:23.511Z,58.60
2023-01-07T07:29:50.301Z,59.40
2023-01-07T07:32:17.375Z,58.30
2023-01-07T07:34:44.183Z,58.60
2023-01-07T07:37:11.308Z,59.40
2023-01-07T07:39:38.133Z,59.20
2023-01-07T07:42:05.837Z,58.90
2023-01-07T07:44:32.739Z,58.20
2023-01-07T07:46:59.491Z,58.60
2023-01-07T07:49:26.412Z,58.80
2023-01-07T07:51:53.371Z,59.00
2023-01-07T07:54:21.314Z,58.10
2023-01-07T07:56:49.915Z,59.30
2023-01-07T07:59:16.671Z,58.10
2023-01-07T08:01:43.504Z,58.20
2023-01-07T08:04:12.074Z,58.80
2023-01-07T08:06:38.833Z,58.00
2023-01-07T08:09:05.583Z,58.50
2023-01-07T08:11:33.934Z,58.60
2023-01-07T08:14:00.866Z,57.20
2023-01-07T08:16:29.403Z,57.20
2023-01-07T08:18:57.337Z,59.00
2023-01-07T08:21:24.200Z,58.10
2023-01-07T08:23:52.207Z,57.90
2023-01-07T08:26:19.048Z,59.30
2023-01-07T08:28:46.862Z,59.00
2023-01-07T08:31:13.911Z,58.80
2023-01-07T08:33:40.764Z,59.00
2023-01-07T08:36:21.554Z,58.30
2023-01-07T08:38:53.834Z,57.50
2023-01-07T08:41:22.258Z,58.00
2023-01-07T08:43:50.455Z,58.80
2023-01-07T08:46:17.712Z,58.00
2023-01-07T08:48:46.716Z,58.10
2023-01-07T08:51:13.423Z,59.00
2023-01-07T08:53:40.440Z,60.00
2023-01-07T08:56:08.713Z,59.70
2023-01-07T08:58:35.682Z,58.50
2023-01-07T09:01:05.956Z,59.10
2023-01-07T09:03:34.704Z,58.40
2023-01-07T09:06:02.525Z,58.70
2023-01-07T09:08:29.311Z,58.60
2023-01-07T09:10:57.153Z,59.10
2023-01-07T09:13:23.955Z,57.90
2023-01-07T09:15:51.050Z,58.90
2023-01-07T09:18:17.986Z,58.30
2023-01-07T09:20:44.837Z,57.70
2023-01-07T09:23:11.625Z,57.80
2023-01-07T09:25:38.401Z,58.70
2023-01-07T09:28:06.218Z,57.80
2023-01-07T09:30:33.199Z,58.70
2023-01-07T09:33:00.369Z,57.90
2023-01-07T09:35:27.783Z,56.70
2023-01-07T09:37:54.714Z,58.50
2023-01-07T09:40:36.441Z,57.20
2023-01-07T09:43:08.901Z,57.20
2023-01-07T09:45:58.644Z,58.10
2023-01-07T09:48:35.435Z,58.20
2023-01-07T09:51:13.738Z,57.20
2023-01-07T09:53:48.390Z,57.10
2023-01-07T09:56:23.753Z,57.10
2023-01-07T09:58:51.246Z,58.10
2023-01-07T10:01:28.484Z,57.20
2023-01-07T10:04:24.868Z,57.50
2023-01-07T10:07:34.268Z,56.80
2023-01-07T10:10:38.694Z,56.80
2023-01-07T10:13:37.610Z,56.70
2023-01-07T10:16:20.549Z,56.70
2023-01-07T10:19:13.303Z,56.60
2023-01-07T10:22:03.239Z,56.60
2023-01-07T10:24:38.065Z,56.60
2023-01-07T10:27:09.961Z,56.70
2023-01-07T10:29:50.855Z,56.60
2023-01-07T10:32:21.591Z,56.60
2023-01-07T10:34:51.180Z,57.20
2023-01-07T10:37:27.264Z,57.30
2023-01-07T10:40:12.612Z,57.50
2023-01-07T10:43:01.039Z,56.60
2023-01-07T10:45:55.031Z,56.50
2023-01-07T10:48:24.902Z,56.50
2023-01-07T10:51:10.255Z,57.20
2023-01-07T10:54:14.643Z,56.50
2023-01-07T10:56:51.054Z,56.40
2023-01-07T10:59:20.627Z,56.40
2023-01-07T11:01:57.943Z,56.70
2023-01-07T11:04:26.776Z,57.20
2023-01-07T11:07:28.127Z,56.20
2023-01-07T11:09:57.174Z,56.20
2023-01-07T11:12:38.440Z,56.90
2023-01-07T11:15:13.572Z,56.20
2023-01-07T11:17:56.504Z,56.10
2023-01-07T11:20:46.462Z,56.10
2023-01-07T11:23:41.341Z,56.20
2023-01-07T11:26:27.424Z,56.10
2023-01-07T11:28:56.122Z,56.10
2023-01-07T11:31:43.504Z,55.40
2023-01-07T11:34:37.910Z,55.40
2023-01-07T11:37:05.545Z,55.40
2023-01-07T11:39:34.988Z,55.40
2023-01-07T11:42:36.086Z,57.10
2023-01-07T11:45:33.013Z,55.90
2023-01-07T11:48:05.982Z,55.90
2023-01-07T11:50:40.870Z,56.10
2023-01-07T11:53:23.005Z,55.90
2023-01-07T11:56:04.336Z,56.70
2023-01-07T11:58:38.150Z,55.90
2023-01-07T12:01:07.987Z,56.30
2023-01-07T12:03:40.692Z,56.00
2023-01-07T12:06:29.086Z,55.90
2023-01-07T12:09:03.919Z,56.00
2023-01-07T12:11:36.520Z,55.90
2023-01-07T12:14:28.318Z,56.50
2023-01-07T12:17:05.405Z,55.80
2023-01-07T12:20:10.811Z,56.20
2023-01-07T12:22:58.447Z,55.80
2023-01-07T12:25:45.498Z,56.30
2023-01-07T12:28:16.486Z,55.90
2023-01-07T12:31:11.616Z,56.40
2023-01-07T12:34:03.998Z,55.90
2023-01-07T12:36:50.035Z,55.30
2023-01-07T12:39:25.777Z,55.80
2023-01-07T12:42:01.359Z,55.20
2023-01-07T12:44:28.228Z,57.20
2023-01-07T12:47:31.180Z,55.30
2023-01-07T12:50:11.813Z,55.90
2023-01-07T12:52:47.939Z,56.00
2023-01-07T12:55:22.167Z,56.60
2023-01-07T12:58:17.967Z,56.70
2023-01-07T13:01:07.576Z,55.90
2023-01-07T13:03:53.229Z,55.90
2023-01-07T13:06:44.585Z,57.10
2023-01-07T13:09:26.408Z,56.00
2023-01-07T13:12:40.582Z,56.00
2023-01-07T13:15:17.057Z,56.10
2023-01-07T13:17:44.207Z,56.30
2023-01-07T13:20:18.349Z,56.40
2023-01-07T13:22:52.563Z,56.60
2023-01-07T13:25:32.773Z,57.70
2023-01-07T13:28:18.246Z,58.00
2023-01-07T13:30:47.923Z,57.90
2023-01-07T13:33:22.681Z,57.80
2023-01-07T13:35:52.053Z,57.90
2023-01-07T13:38:39.433Z,58.30
2023-01-07T13:41:08.824Z,59.00
2023-01-07T13:44:02.251Z,59.60
2023-01-07T13:46:36.472Z,59.80
2023-01-07T13:49:03.267Z,59.90
2023-01-07T13:51:31.919Z,60.00
2023-01-07T13:53:58.988Z,60.30
2023-01-07T13:56:25.881Z,59.90
2023-01-07T13:58:53.631Z,60.90
2023-01-07T14:01:24.944Z,61.10
2023-01-07T14:03:53.345Z,61.20
2023-01-07T14:06:20.220Z,61.30
2023-01-07T14:08:57.263Z,61.00
2023-01-07T14:11:42.205Z,60.90
2023-01-07T14:14:08.868Z,60.70
2023-01-07T14:16:43.670Z,60.60
2023-01-07T14:19:13.456Z,60.30
2023-01-07T14:21:40.026Z,60.00
2023-01-07T14:24:39.235Z,59.80
2023-01-07T14:27:14.260Z,59.60
2023-01-07T14:29:54.339Z,59.40
2023-01-07T14:32:34.160Z,59.20
2023-01-07T14:35:01.173Z,59.10
2023-01-07T14:37:36.802Z,58.90
2023-01-07T14:40:23.786Z,58.70
2023-01-07T14:42:50.531Z,58.60
2023-01-07T14:45:36.064Z,58.50
2023-01-07T14:48:22.628Z,58.40
2023-01-07T14:50:50.278Z,58.20
2023-01-07T14:53:27.803Z,58.20
2023-01-07T14:55:54.504Z,58.10
2023-01-07T14:58:25.938Z,58.10
2023-01-07T15:00:55.695Z,58.00
2023-01-07T15:03:28.517Z,57.90
2023-01-07T15:05:59.892Z,57.80
2023-01-07T15:08:46.886Z,57.80
2023-01-07T15:11:39.254Z,57.00
2023-01-07T15:14:45.003Z,58.30
2023-01-07T15:17:13.222Z,57.50
2023-01-07T15:19:40.562Z,57.50
2023-01-07T15:22:25.486Z,56.80
2023-01-07T15:24:57.192Z,57.40
2023-01-07T15:27:29.880Z,56.60
2023-01-07T15:30:11.968Z,57.30
2023-01-07T15:32:52.296Z,57.20
2023-01-07T15:35:20.504Z,57.20
2023-01-07T15:37:48.544Z,56.50
2023-01-07T15:40:23.441Z,56.50
2023-01-07T15:42:51.650Z,57.10
2023-01-07T15:45:19.700Z,57.10
2023-01-07T15:47:46.787Z,57.10
2023-01-07T15:50:24.858Z,57.00
2023-01-07T15:52:51.623Z,56.90
2023-01-07T15:55:26.341Z,56.90
2023-01-07T15:57:57.196Z,56.80
2023-01-07T16:00:24.978Z,56.90
2023-01-07T16:02:51.764Z,56.80
2023-01-07T16:05:19.611Z,56.80
2023-01-07T16:07:49.312Z,56.40
2023-01-07T16:10:29.407Z,56.80
2023-01-07T16:12:57.774Z,56.80
2023-01-07T16:15:26.310Z,56.10
2023-01-07T16:17:57.338Z,56.10
2023-01-07T16:20:27.569Z,56.80
2023-01-07T16:23:01.338Z,56.00
2023-01-07T16:25:32.464Z,56.70
2023-01-07T16:27:59.296Z,56.00
2023-01-07T16:30:26.383Z,56.70
2023-01-07T16:32:54.620Z,56.50
2023-01-07T16:35:29.253Z,56.60
2023-01-07T16:37:56.231Z,56.60
2023-01-07T16:40:30.674Z,55.90
2023-01-07T16:42:57.471Z,56.50
2023-01-07T16:45:25.723Z,55.50
2023-01-07T16:48:28.677Z,55.80
2023-01-07T16:50:55.569Z,56.40
2023-01-07T16:53:27.005Z,55.80
2023-01-07T16:56:12.662Z,56.40
2023-01-07T16:58:41.225Z,56.30
2023-01-07T17:01:09.926Z,56.30
2023-01-07T17:03:48.013Z,56.30
2023-01-07T17:06:15.294Z,56.10
2023-01-07T17:08:47.924Z,56.30
2023-01-07T17:11:19.932Z,55.70
2023-01-07T17:13:46.942Z,56.40
2023-01-07T17:16:13.598Z,55.70
2023-01-07T17:18:40.785Z,55.70
2023-01-07T17:21:27.481Z,55.70
2023-01-07T17:23:54.497Z,56.30
2023-01-07T17:26:22.651Z,55.60
2023-01-07T17:28:53.479Z,56.40
2023-01-07T17:31:21.169Z,56.30
2023-01-07T17:33:47.951Z,55.70
2023-01-07T17:36:16.162Z,56.50
2023-01-07T17:38:43.238Z,57.00
2023-01-07T17:41:34.206Z,55.60
2023-01-07T17:44:04.421Z,55.60
2023-01-07T17:46:31.125Z,56.30
2023-01-07T17:48:58.533Z,56.30
2023-01-07T17:51:26.354Z,55.70
2023-01-07T17:53:53.784Z,55.70
2023-01-07T17:56:20.484Z,56.30
2023-01-07T17:58:47.380Z,56.40
2023-01-07T18:01:21.763Z,56.40
2023-01-07T18:03:49.246Z,56.30
2023-01-07T18:06:20.703Z,55.70
2023-01-07T18:08:48.544Z,56.30
2023-01-07T18:11:39.118Z,55.60
2023-01-07T18:14:06.187Z,56.30
2023-01-07T18:16:32.853Z,56.30
2023-01-07T18:18:59.543Z,56.40
2023-01-07T18:21:26.578Z,56.30
2023-01-07T18:23:53.281Z,55.70
2023-01-07T18:26:19.983Z,56.70
2023-01-07T18:28:47.053Z,56.40
2023-01-07T18:31:14.271Z,56.30
2023-01-07T18:33:40.968Z,56.30
2023-01-07T18:36:07.668Z,56.40
2023-01-07T18:38:34.434Z,56.40
2023-01-07T18:41:01.041Z,56.40
2023-01-07T18:43:27.692Z,56.40
2023-01-07T18:45:54.757Z,56.30
2023-01-07T18:48:21.488Z,55.70
2023-01-07T18:50:50.248Z,56.40
2023-01-07T18:53:17.685Z,55.70
2023-01-07T18:55:44.775Z,56.30
2023-01-07T18:58:15.122Z,56.30
2023-01-07T19:00:42.098Z,55.70
2023-01-07T19:03:09.646Z,55.60
2023-01-07T19:05:38.687Z,56.80
2023-01-07T19:08:05.639Z,55.70
2023-01-07T19:10:32.284Z,55.70
2023-01-07T19:12:59.195Z,56.60
2023-01-07T19:15:25.849Z,55.70
2023-01-07T19:17:52.523Z,56.60
2023-01-07T19:20:19.267Z,55.70
2023-01-07T19:22:46.337Z,56.60
2023-01-07T19:25:13.120Z,55.70
2023-01-07T19:27:39.763Z,55.70
2023-01-07T19:30:06.773Z,56.50
2023-01-07T19:32:33.457Z,56.30
2023-01-07T19:35:00.199Z,56.40
2023-01-07T19:37:26.957Z,56.30
2023-01-07T19:39:53.749Z,56.30
2023-01-07T19:42:20.393Z,56.40
2023-01-07T19:44:47.025Z,57.30
2023-01-07T19:47:13.691Z,56.40
2023-01-07T19:49:40.354Z,56.30
2023-01-07T19:52:07.015Z,56.40
2023-01-07T19:54:35.186Z,56.30
2023-01-07T19:57:01.948Z,55.70
2023-01-07T19:59:31.133Z,56.60
2023-01-07T20:01:57.978Z,56.30
2023-01-07T20:04:27.195Z,56.30
2023-01-07T20:06:54.192Z,56.40
2023-01-07T20:09:21.182Z,56.30
2023-01-07T20:11:47.984Z,56.30
2023-01-07T20:14:14.977Z,56.30
2023-01-07T20:16:42.175Z,56.30
2023-01-07T20:19:10.338Z,56.90
2023-01-07T20:21:37.043Z,55.60
2023-01-07T20:24:04.318Z,56.40
2023-01-07T20:26:32.088Z,56.30
2023-01-07T20:28:59.527Z,56.30
2023-01-07T20:31:26.962Z,56.30
2023-01-07T20:33:55.809Z,56.30
2023-01-07T20:36:23.891Z,56.30
2023-01-07T20:38:51.033Z,56.20
2023-01-07T20:41:19.150Z,56.30
2023-01-07T20:43:50.059Z,56.40
2023-01-07T20:46:16.726Z,56.40
2023-01-07T20:48:43.442Z,56.50
2023-01-07T20:51:11.897Z,56.30
2023-01-07T20:53:40.340Z,56.30
2023-01-07T20:56:08.475Z,56.30
2023-01-07T20:58:36.437Z,56.30
2023-01-07T21:01:04.438Z,56.30
2023-01-07T21:03:31.364Z,56.30
2023-01-07T21:05:58.102Z,56.30
2023-01-07T21:08:24.896Z,56.30
2023-01-07T21:10:52.154Z,56.30
2023-01-07T21:13:19.280Z,56.30
2023-01-07T21:15:46.226Z,56.20
2023-01-07T21:18:13.053Z,56.30
2023-01-07T21:20:40.083Z,56.40
2023-01-07T21:23:07.298Z,56.30
2023-01-07T21:25:34.396Z,56.30
2023-01-07T21:28:01.965Z,55.70
2023-01-07T21:30:28.737Z,55.60
2023-01-07T21:32:55.562Z,55.70
2023-01-07T21:35:22.361Z,56.40
2023-01-07T21:37:51.522Z,56.80
2023-01-07T21:40:18.177Z,56.30
2023-01-07T21:42:44.846Z,56.30
2023-01-07T21:45:12.613Z,56.30
2023-01-07T21:47:39.275Z,56.80
2023-01-07T21:50:06.209Z,56.50
2023-01-07T21:52:33.989Z,56.20
2023-01-07T21:55:00.899Z,56.20
2023-01-07T21:57:27.729Z,55.60
2023-01-07T21:59:54.386Z,56.30
2023-01-07T22:02:21.064Z,56.40
2023-01-07T22:04:48.287Z,56.20
2023-01-07T22:07:16.317Z,56.20
2023-01-07T22:09:43.410Z,56.10
2023-01-07T22:12:13.898Z,56.20
2023-01-07T22:14:40.571Z,56.20
2023-01-07T22:17:07.613Z,56.20
2023-01-07T22:19:34.252Z,56.20
2023-01-07T22:22:01.393Z,56.30
2023-01-07T22:24:28.127Z,56.30
2023-01-07T22:26:55.145Z,56.30
2023-01-07T22:29:21.849Z,56.40
2023-01-07T22:31:50.782Z,56.40
2023-01-07T22:34:17.565Z,56.60
2023-01-07T22:36:44.306Z,56.50
2023-01-07T22:39:13.927Z,56.40
2023-01-07T22:41:40.592Z,56.40
2023-01-07T22:44:10.767Z,56.40
2023-01-07T22:46:38.039Z,56.40
2023-01-07T22:49:05.613Z,57.20
2023-01-07T22:51:37.890Z,56.40
2023-01-07T22:54:05.423Z,56.50
2023-01-07T22:56:32.664Z,56.50
2023-01-07T22:58:59.296Z,56.40
2023-01-07T23:01:25.974Z,56.40
2023-01-07T23:03:52.697Z,56.40
2023-01-07T23:06:19.468Z,56.40
2023-01-07T23:08:46.147Z,56.40
2023-01-07T23:11:33.085Z,56.40
2023-01-07T23:13:59.918Z,56.40
2023-01-07T23:16:26.580Z,56.40
2023-01-07T23:18:53.355Z,56.40
2023-01-07T23:21:20.002Z,56.50
2023-01-07T23:23:46.664Z,56.40
2023-01-07T23:26:13.732Z,56.40
2023-01-07T23:28:40.624Z,56.40
2023-01-07T23:31:07.384Z,56.40
2023-01-07T23:33:33.999Z,56.40
2023-01-07T23:36:01.560Z,56.40
2023-01-07T23:38:28.343Z,56.30
2023-01-07T23:41:05.845Z,56.40
2023-01-07T23:43:32.523Z,56.30
2023-01-07T23:46:00.061Z,56.30
2023-01-07T23:48:27.475Z,56.70
2023-01-07T23:50:54.390Z,56.30
2023-01-07T23:53:21.359Z,56.20
2023-01-07T23:55:52.320Z,56.20
2023-01-07T23:58:20.772Z,56.20
